createdAt,value
2022-09-14T00:01:23.696Z,2.42
2022-09-14T00:03:47.936Z,2.10
2022-09-14T00:06:16.351Z,2.30
2022-09-14T00:08:44.112Z,2.30
2022-09-14T00:11:13.548Z,2.10
2022-09-14T00:13:43.476Z,2.72
2022-09-14T00:16:22.667Z,2.10
2022-09-14T00:18:54.549Z,2.17
2022-09-14T00:21:22.299Z,2.53
2022-09-14T00:23:49.043Z,2.15
2022-09-14T00:26:18.810Z,2.35
2022-09-14T00:28:50.741Z,2.55
2022-09-14T00:31:18.862Z,2.97
2022-09-14T00:33:48.055Z,2.60
2022-09-14T00:36:16.825Z,3.10
2022-09-14T00:38:43.571Z,2.35
2022-09-14T00:41:16.319Z,2.35
2022-09-14T00:43:58.192Z,2.70
2022-09-14T00:46:27.700Z,3.22
2022-09-14T00:48:56.040Z,3.08
2022-09-14T00:51:23.419Z,4.70
2022-09-14T00:53:50.211Z,3.63
2022-09-14T00:56:17.081Z,4.00
2022-09-14T00:58:46.693Z,3.28
2022-09-14T01:01:14.065Z,3.28
2022-09-14T01:03:41.052Z,3.65
2022-09-14T01:06:27.173Z,2.97
2022-09-14T01:09:09.444Z,2.53
2022-09-14T01:12:06.172Z,2.70
2022-09-14T01:14:47.653Z,2.30
2022-09-14T01:17:44.724Z,2.95
2022-09-14T01:20:25.971Z,2.38
2022-09-14T01:23:08.346Z,3.25
2022-09-14T01:25:59.754Z,2.80
2022-09-14T01:28:52.471Z,2.45
2022-09-14T01:31:48.273Z,2.92
2022-09-14T01:34:28.851Z,2.28
2022-09-14T01:37:03.557Z,2.83
2022-09-14T01:39:35.242Z,2.88
2022-09-14T01:42:02.532Z,2.50
2022-09-14T01:44:35.951Z,3.13
2022-09-14T01:47:15.274Z,2.83
2022-09-14T01:49:52.436Z,2.88
2022-09-14T01:52:25.902Z,3.15
2022-09-14T01:55:07.612Z,2.75
2022-09-14T01:57:40.921Z,2.63
2022-09-14T02:00:18.822Z,3.47
2022-09-14T02:03:00.342Z,2.58
2022-09-14T02:05:50.779Z,2.80
2022-09-14T02:08:17.896Z,2.60
2022-09-14T02:10:44.525Z,3.97
2022-09-14T02:13:11.114Z,3.05
2022-09-14T02:15:38.942Z,2.50
2022-09-14T02:18:05.862Z,3.05
2022-09-14T02:20:42.922Z,2.60
2022-09-14T02:23:09.701Z,2.53
2022-09-14T02:25:36.889Z,2.90
2022-09-14T02:28:04.511Z,2.47
2022-09-14T02:30:37.218Z,3.30
2022-09-14T02:33:19.476Z,3.17
2022-09-14T02:35:54.162Z,2.92
2022-09-14T02:38:40.620Z,2.92
2022-09-14T02:41:49.017Z,2.42
2022-09-14T02:44:35.332Z,3.67
2022-09-14T02:47:10.209Z,3.05
2022-09-14T02:49:40.199Z,2.55
2022-09-14T02:52:16.037Z,2.42
2022-09-14T02:54:52.142Z,2.20
2022-09-14T02:57:18.820Z,2.80
2022-09-14T02:59:45.512Z,2.78
2022-09-14T03:02:15.520Z,2.55
2022-09-14T03:04:42.320Z,2.28
2022-09-14T03:07:09.243Z,3.15
2022-09-14T03:09:35.859Z,2.58
2022-09-14T03:12:02.795Z,3.15
2022-09-14T03:14:29.504Z,2.83
2022-09-14T03:16:56.352Z,3.05
2022-09-14T03:19:23.190Z,2.65
2022-09-14T03:21:49.785Z,2.65
2022-09-14T03:24:16.387Z,2.38
2022-09-14T03:26:43.106Z,2.95
2022-09-14T03:29:09.698Z,2.53
2022-09-14T03:31:36.774Z,2.45
2022-09-14T03:34:03.650Z,2.50
2022-09-14T03:36:31.590Z,2.60
2022-09-14T03:39:00.156Z,3.83
2022-09-14T03:41:28.191Z,2.20
2022-09-14T03:43:54.903Z,2.38
2022-09-14T03:46:23.736Z,2.25
2022-09-14T03:48:52.062Z,2.70
2022-09-14T03:51:18.756Z,2.53
2022-09-14T03:53:45.826Z,2.55
2022-09-14T03:56:16.473Z,2.30
2022-09-14T03:58:44.235Z,2.38
2022-09-14T04:01:14.572Z,2.10
2022-09-14T04:03:41.843Z,2.20
2022-09-14T04:06:09.238Z,2.17
2022-09-14T04:08:38.570Z,2.60
2022-09-14T04:11:10.843Z,2.30
2022-09-14T04:13:38.503Z,1.90
2022-09-14T04:16:05.566Z,2.97
2022-09-14T04:18:32.807Z,2.22
2022-09-14T04:21:07.243Z,2.40
2022-09-14T04:23:46.222Z,2.78
2022-09-14T04:26:20.307Z,2.22
2022-09-14T04:28:46.946Z,2.50
2022-09-14T04:31:14.272Z,2.42
2022-09-14T04:33:43.236Z,2.20
2022-09-14T04:36:14.986Z,2.20
2022-09-14T04:38:42.530Z,2.15
2022-09-14T04:41:12.276Z,1.80
2022-09-14T04:43:39.637Z,2.00
2022-09-14T04:46:09.959Z,2.20
2022-09-14T04:48:36.879Z,2.20
2022-09-14T04:51:18.178Z,2.15
2022-09-14T04:53:52.466Z,1.95
2022-09-14T04:56:24.295Z,2.15
2022-09-14T04:58:54.239Z,2.28
2022-09-14T05:01:23.685Z,2.40
2022-09-14T05:03:51.141Z,2.53
2022-09-14T05:06:28.849Z,1.85
2022-09-14T05:08:56.842Z,2.20
2022-09-14T05:11:25.951Z,2.17
2022-09-14T05:13:52.646Z,1.98
2022-09-14T05:16:29.683Z,2.40
2022-09-14T05:19:01.995Z,2.13
2022-09-14T05:21:30.545Z,2.40
2022-09-14T05:24:00.048Z,2.25
2022-09-14T05:26:28.720Z,2.28
2022-09-14T05:28:57.823Z,1.83
2022-09-14T05:31:26.674Z,2.10
2022-09-14T05:33:54.027Z,2.38
2022-09-14T05:36:21.349Z,3.28
2022-09-14T05:38:48.136Z,2.28
2022-09-14T05:41:17.282Z,2.40
2022-09-14T05:43:44.363Z,2.20
2022-09-14T05:46:17.305Z,2.50
2022-09-14T05:48:44.130Z,2.53
2022-09-14T05:51:19.111Z,2.70
2022-09-14T05:53:50.902Z,2.30
2022-09-14T05:56:26.113Z,2.60
2022-09-14T05:58:53.482Z,2.65
2022-09-14T06:01:29.444Z,2.83
2022-09-14T06:04:00.246Z,2.83
2022-09-14T06:06:30.046Z,3.75
2022-09-14T06:08:57.211Z,3.40
2022-09-14T06:11:27.042Z,3.42
2022-09-14T06:13:54.503Z,3.70
2022-09-14T06:16:26.425Z,3.40
2022-09-14T06:18:55.330Z,3.38
2022-09-14T06:21:23.498Z,3.42
2022-09-14T06:23:51.934Z,3.60
2022-09-14T06:26:18.584Z,3.75
2022-09-14T06:28:45.291Z,4.30
2022-09-14T06:31:14.053Z,4.50
2022-09-14T06:33:45.813Z,3.90
2022-09-14T06:36:15.976Z,3.63
2022-09-14T06:38:42.812Z,3.60
2022-09-14T06:41:12.319Z,4.65
2022-09-14T06:43:40.745Z,3.53
2022-09-14T06:46:07.605Z,3.80
2022-09-14T06:48:38.929Z,3.72
2022-09-14T06:51:14.861Z,4.10
2022-09-14T06:53:42.088Z,3.80
2022-09-14T06:56:08.823Z,4.00
2022-09-14T06:58:36.508Z,3.60
2022-09-14T07:01:05.622Z,3.88
2022-09-14T07:03:40.203Z,4.30
2022-09-14T07:06:16.100Z,3.50
2022-09-14T07:08:58.093Z,4.10
2022-09-14T07:11:29.525Z,3.80
2022-09-14T07:14:00.042Z,4.28
2022-09-14T07:16:28.322Z,4.45
2022-09-14T07:19:00.289Z,3.95
2022-09-14T07:21:26.937Z,4.13
2022-09-14T07:23:55.637Z,4.00
2022-09-14T07:26:24.319Z,4.50
2022-09-14T07:28:57.867Z,4.40
2022-09-14T07:34:02.704Z,4.05
2022-09-14T07:36:34.595Z,5.13
2022-09-14T07:39:04.169Z,4.68
2022-09-14T07:41:32.964Z,4.95
2022-09-14T07:44:01.188Z,5.15
2022-09-14T07:46:29.395Z,5.25
2022-09-14T07:48:58.182Z,5.80
2022-09-14T07:51:26.064Z,5.47
2022-09-14T07:53:53.071Z,5.60
2022-09-14T07:56:21.704Z,5.30
2022-09-14T07:58:54.796Z,6.03
2022-09-14T08:01:23.735Z,5.50
2022-09-14T08:03:50.911Z,6.20
2022-09-14T08:06:26.270Z,5.97
2022-09-14T08:08:54.827Z,5.50
2022-09-14T08:11:27.073Z,5.90
2022-09-14T08:14:14.065Z,5.35
2022-09-14T08:16:41.357Z,5.63
2022-09-14T08:19:17.231Z,5.88
2022-09-14T08:21:47.330Z,5.68
2022-09-14T08:24:17.243Z,5.30
2022-09-14T08:26:44.127Z,5.43
2022-09-14T08:29:16.937Z,5.45
2022-09-14T08:31:46.087Z,5.97
2022-09-14T08:34:13.542Z,6.05
2022-09-14T08:36:41.602Z,5.65
2022-09-14T08:39:10.601Z,6.38
2022-09-14T08:41:47.410Z,5.90
2022-09-14T08:44:20.126Z,6.22
2022-09-14T08:47:01.781Z,5.67
2022-09-14T08:49:48.529Z,5.78
2022-09-14T08:52:30.982Z,5.88
2022-09-14T08:55:01.037Z,6.40
2022-09-14T08:57:37.961Z,5.75
2022-09-14T09:00:14.808Z,5.95
2022-09-14T09:03:16.991Z,5.95
2022-09-14T09:06:10.928Z,5.32
2022-09-14T09:08:55.455Z,5.32
2022-09-14T09:11:28.815Z,5.57
2022-09-14T09:13:56.554Z,5.90
2022-09-14T09:16:24.892Z,5.03
2022-09-14T09:18:58.667Z,5.22
2022-09-14T09:21:38.398Z,5.10
2022-09-14T09:24:40.676Z,5.07
2022-09-14T09:27:15.005Z,5.10
2022-09-14T09:29:42.561Z,5.20
2022-09-14T09:32:25.154Z,5.45
2022-09-14T09:35:32.718Z,4.80
2022-09-14T09:38:16.014Z,5.78
2022-09-14T09:40:50.661Z,6.15
2022-09-14T09:43:38.528Z,5.75
2022-09-14T09:46:08.114Z,5.80
2022-09-14T09:48:37.884Z,5.45
2022-09-14T09:51:25.477Z,5.85
2022-09-14T09:53:55.686Z,5.03
2022-09-14T09:56:32.568Z,5.70
2022-09-14T09:59:00.418Z,4.97
2022-09-14T10:01:30.767Z,5.68
2022-09-14T10:04:06.025Z,5.30
2022-09-14T10:06:42.292Z,4.70
2022-09-14T10:09:14.651Z,5.15
2022-09-14T10:11:41.720Z,5.05
2022-09-14T10:14:31.396Z,5.70
2022-09-14T10:17:17.101Z,5.22
2022-09-14T10:19:52.363Z,5.50
2022-09-14T10:22:28.303Z,5.40
2022-09-14T10:25:15.268Z,4.63
2022-09-14T10:27:50.510Z,5.65
2022-09-14T10:30:20.152Z,5.50
2022-09-14T10:33:02.197Z,5.18
2022-09-14T10:35:41.758Z,5.22
2022-09-14T10:38:41.965Z,6.28
2022-09-14T10:41:11.553Z,6.78
2022-09-14T10:43:56.506Z,6.47
2022-09-14T10:46:34.593Z,6.40
2022-09-14T10:49:33.592Z,6.20
2022-09-14T10:52:46.273Z,6.60
2022-09-14T10:56:02.096Z,5.90
2022-09-14T10:58:42.506Z,6.25
2022-09-14T11:01:39.242Z,6.63
2022-09-14T11:04:08.972Z,5.97
2022-09-14T11:07:04.584Z,5.72
2022-09-14T11:09:46.547Z,5.90
2022-09-14T11:12:38.411Z,6.22
2022-09-14T11:15:48.683Z,6.18
2022-09-14T11:18:52.772Z,6.60
2022-09-14T11:21:32.839Z,6.30
2022-09-14T11:24:33.446Z,6.68
2022-09-14T11:27:10.972Z,6.18
2022-09-14T11:29:48.606Z,6.32
2022-09-14T11:32:39.468Z,6.75
2022-09-14T11:35:19.044Z,6.22
2022-09-14T11:38:00.864Z,6.63
2022-09-14T11:40:33.046Z,5.65
2022-09-14T11:43:06.061Z,5.70
2022-09-14T11:45:42.310Z,4.45
2022-09-14T11:48:46.171Z,4.50
2022-09-14T11:51:21.972Z,4.20
2022-09-14T11:53:50.985Z,4.07
2022-09-14T11:56:31.483Z,4.38
2022-09-14T11:59:07.913Z,3.58
2022-09-14T12:01:36.549Z,4.18
2022-09-14T12:04:09.626Z,3.55
2022-09-14T12:06:36.973Z,2.03
2022-09-14T12:09:24.107Z,2.25
2022-09-14T12:11:53.549Z,2.63
2022-09-14T12:14:30.527Z,2.03
2022-09-14T12:20:30.041Z,1.50
2022-09-14T12:23:05.023Z,1.90
2022-09-14T12:25:34.078Z,1.70
2022-09-14T12:28:00.892Z,1.30
2022-09-14T12:30:40.559Z,1.48
2022-09-14T12:33:37.080Z,1.20
2022-09-14T12:36:12.069Z,3.03
2022-09-14T12:38:41.571Z,1.70
2022-09-14T12:41:08.365Z,1.50
2022-09-14T12:43:35.273Z,1.55
2022-09-14T12:46:08.747Z,1.40
2022-09-14T12:51:32.799Z,1.67
2022-09-14T12:54:09.050Z,1.80
2022-09-14T12:56:58.677Z,1.65
2022-09-14T12:59:31.627Z,2.20
2022-09-14T13:02:16.951Z,2.10
2022-09-14T13:04:45.762Z,2.40
2022-09-14T13:07:19.203Z,2.28
2022-09-14T13:09:52.802Z,2.80
2022-09-14T13:12:37.102Z,2.75
2022-09-14T13:15:08.300Z,2.97
2022-09-14T13:17:34.991Z,2.97
2022-09-14T13:20:06.150Z,2.85
2022-09-14T13:22:33.435Z,3.92
2022-09-14T13:25:03.758Z,4.10
2022-09-14T13:27:34.142Z,3.67
2022-09-14T13:30:04.829Z,3.88
2022-09-14T13:32:35.767Z,3.83
2022-09-14T13:35:05.274Z,3.80
2022-09-14T13:37:32.418Z,4.18
2022-09-14T13:39:59.813Z,4.60
2022-09-14T13:42:27.865Z,4.07
2022-09-14T13:44:55.020Z,5.97
2022-09-14T13:47:23.990Z,4.22
2022-09-14T13:49:53.172Z,6.95
2022-09-14T13:52:25.897Z,4.30
2022-09-14T13:55:25.144Z,4.35
2022-09-14T13:58:13.180Z,4.80
2022-09-14T14:01:02.802Z,4.75
2022-09-14T14:03:33.300Z,4.32
2022-09-14T14:06:23.744Z,5.38
2022-09-14T14:09:01.183Z,5.43
2022-09-14T14:11:36.609Z,5.07
2022-09-14T14:14:18.638Z,4.50
2022-09-14T14:17:13.558Z,3.80
2022-09-14T14:19:40.688Z,4.22
2022-09-14T14:22:16.308Z,3.63
2022-09-14T14:25:12.413Z,3.70
2022-09-14T14:27:37.682Z,3.45
2022-09-14T14:30:14.240Z,3.97
2022-09-14T14:32:41.444Z,3.60
2022-09-14T14:35:15.774Z,5.47
2022-09-14T14:37:42.891Z,3.33
2022-09-14T14:40:12.537Z,3.35
2022-09-14T14:42:39.565Z,4.10
2022-09-14T14:45:07.564Z,5.95
2022-09-14T14:47:34.206Z,4.45
2022-09-14T14:50:01.182Z,6.75
2022-09-14T14:52:27.849Z,6.78
2022-09-14T14:54:54.515Z,6.75
2022-09-14T14:57:21.280Z,6.53
2022-09-14T14:59:52.746Z,5.82
2022-09-14T15:02:19.401Z,5.72
2022-09-14T15:04:46.057Z,5.10
2022-09-14T15:07:12.599Z,4.10
2022-09-14T15:09:39.161Z,4.57
2022-09-14T15:12:05.869Z,5.53
2022-09-14T15:14:32.463Z,4.05
2022-09-14T15:17:00.401Z,3.80
2022-09-14T15:19:27.217Z,3.63
2022-09-14T15:21:58.575Z,4.35
2022-09-14T15:24:27.517Z,3.90
2022-09-14T15:26:54.337Z,4.75
2022-09-14T15:29:21.215Z,4.85
2022-09-14T15:31:48.166Z,4.22
2022-09-14T15:34:14.855Z,4.53
2022-09-14T15:36:47.787Z,4.65
2022-09-14T15:39:15.060Z,4.95
2022-09-14T15:41:42.589Z,4.85
2022-09-14T15:44:11.555Z,4.72
2022-09-14T15:46:39.170Z,4.97
2022-09-14T15:49:11.579Z,4.50
2022-09-14T15:51:42.377Z,4.82
2022-09-14T15:54:09.176Z,4.47
2022-09-14T15:56:35.879Z,4.93
2022-09-14T15:59:03.787Z,4.78
2022-09-14T16:01:31.489Z,5.13
2022-09-14T16:04:02.725Z,5.40
2022-09-14T16:06:29.489Z,6.18
2022-09-14T16:08:57.669Z,4.60
2022-09-14T16:11:24.998Z,5.05
2022-09-14T16:13:52.285Z,5.55
2022-09-14T16:16:20.400Z,4.80
2022-09-14T16:18:49.810Z,4.57
2022-09-14T16:21:19.262Z,4.90
2022-09-14T16:23:48.903Z,4.60
2022-09-14T16:26:18.755Z,4.57
2022-09-14T16:28:47.729Z,4.13
2022-09-14T16:31:26.927Z,4.35
2022-09-14T16:33:55.620Z,4.05
2022-09-14T16:36:27.525Z,4.30
2022-09-14T16:38:59.685Z,4.85
2022-09-14T16:41:31.471Z,4.75
2022-09-14T16:44:02.440Z,4.88
2022-09-14T16:46:30.740Z,4.95
2022-09-14T16:49:00.678Z,4.82
2022-09-14T16:51:29.664Z,4.80
2022-09-14T16:53:58.582Z,4.97
2022-09-14T16:56:31.542Z,4.30
2022-09-14T16:58:59.849Z,4.53
2022-09-14T17:01:28.673Z,4.85
2022-09-14T17:03:58.107Z,4.97
2022-09-14T17:06:29.143Z,4.82
2022-09-14T17:09:00.192Z,5.13
2022-09-14T17:11:28.935Z,5.22
2022-09-14T17:13:55.973Z,4.75
2022-09-14T17:16:24.519Z,4.90
2022-09-14T17:18:53.576Z,5.03
2022-09-14T17:21:23.352Z,4.90
2022-09-14T17:23:50.428Z,5.20
2022-09-14T17:26:19.316Z,4.95
2022-09-14T17:28:50.994Z,5.50
2022-09-14T17:31:22.764Z,4.88
2022-09-14T17:33:50.210Z,6.60
2022-09-14T17:36:16.971Z,4.65
2022-09-14T17:38:44.415Z,4.35
2022-09-14T17:41:17.002Z,4.10
2022-09-14T17:43:43.711Z,4.03
2022-09-14T17:46:16.129Z,4.30
2022-09-14T17:48:43.634Z,4.38
2022-09-14T17:51:20.323Z,4.70
2022-09-14T17:53:49.522Z,4.72
2022-09-14T17:56:17.832Z,4.32
2022-09-14T17:58:44.835Z,4.80
2022-09-14T18:01:14.278Z,5.00
2022-09-14T18:03:43.535Z,4.70
2022-09-14T18:06:12.375Z,5.22
2022-09-14T18:08:40.205Z,5.47
2022-09-14T18:11:13.618Z,6.07
2022-09-14T18:13:45.297Z,5.55
2022-09-14T18:16:13.819Z,5.43
2022-09-14T18:18:40.925Z,6.00
2022-09-14T18:21:08.657Z,5.75
2022-09-14T18:23:36.195Z,5.53
2022-09-14T18:26:06.737Z,6.13
2022-09-14T18:28:34.868Z,6.10
2022-09-14T18:31:03.510Z,6.47
2022-09-14T18:33:30.373Z,7.22
2022-09-14T18:35:57.606Z,6.07
2022-09-14T18:38:24.595Z,6.45
2022-09-14T18:40:51.426Z,6.65
2022-09-14T18:43:18.000Z,7.60
2022-09-14T18:45:45.605Z,7.82
2022-09-14T18:48:12.803Z,8.52
2022-09-14T18:50:40.939Z,8.98
2022-09-14T18:53:08.276Z,8.68
2022-09-14T18:55:35.460Z,9.77
2022-09-14T18:58:02.555Z,9.10
2022-09-14T19:00:29.600Z,9.77
2022-09-14T19:02:57.039Z,8.65
2022-09-14T19:05:26.763Z,8.98
2022-09-14T19:07:53.362Z,9.45
2022-09-14T19:10:20.458Z,8.60
2022-09-14T19:12:47.058Z,8.68
2022-09-14T19:15:13.822Z,9.80
2022-09-14T19:17:40.403Z,9.65
2022-09-14T19:20:08.504Z,10.35
2022-09-14T19:22:35.451Z,9.63
2022-09-14T19:25:02.184Z,9.40
2022-09-14T19:27:29.008Z,10.23
2022-09-14T19:29:55.662Z,10.68
2022-09-14T19:32:22.333Z,10.05
2022-09-14T19:34:49.575Z,9.57
2022-09-14T19:37:16.201Z,10.18
2022-09-14T19:39:43.841Z,9.35
2022-09-14T19:42:10.600Z,9.35
2022-09-14T19:44:37.555Z,9.52
2022-09-14T19:47:04.248Z,8.63
2022-09-14T19:49:30.885Z,8.63
2022-09-14T19:51:57.568Z,9.38
2022-09-14T19:54:24.971Z,9.07
2022-09-14T19:56:52.354Z,9.27
2022-09-14T19:59:19.633Z,9.50
2022-09-14T20:01:46.630Z,9.23
2022-09-14T20:04:15.688Z,9.63
2022-09-14T20:06:44.174Z,10.45
2022-09-14T20:09:13.841Z,10.23
2022-09-14T20:11:42.522Z,10.00
2022-09-14T20:14:14.888Z,9.23
2022-09-14T20:16:45.051Z,9.85
2022-09-14T20:19:17.030Z,9.80
2022-09-14T20:21:45.525Z,9.75
2022-09-14T20:24:19.159Z,10.73
2022-09-14T20:26:47.685Z,10.13
2022-09-14T20:29:15.631Z,9.38
2022-09-14T20:31:42.681Z,9.98
2022-09-14T20:34:09.590Z,10.07
2022-09-14T20:36:36.679Z,10.75
2022-09-14T20:39:03.402Z,9.77
2022-09-14T20:41:33.167Z,10.77
2022-09-14T20:44:00.210Z,10.52
2022-09-14T20:46:35.468Z,10.43
2022-09-14T20:49:04.519Z,11.07
2022-09-14T20:51:31.724Z,11.10
2022-09-14T20:53:58.542Z,12.05
2022-09-14T20:56:28.547Z,10.57
2022-09-14T20:58:58.013Z,11.05
2022-09-14T21:01:28.277Z,10.65
2022-09-14T21:03:55.629Z,10.63
2022-09-14T21:06:24.296Z,10.45
2022-09-14T21:08:51.991Z,10.65
2022-09-14T21:11:26.563Z,10.85
2022-09-14T21:13:54.710Z,9.73
2022-09-14T21:16:25.093Z,9.82
2022-09-14T21:19:00.810Z,9.85
2022-09-14T21:21:28.291Z,10.55
2022-09-14T21:23:57.028Z,9.52
2022-09-14T21:26:26.814Z,10.10
2022-09-14T21:28:58.929Z,10.43
2022-09-14T21:31:30.002Z,10.30
2022-09-14T21:34:01.664Z,10.40
2022-09-14T21:36:31.865Z,11.10
2022-09-14T21:39:00.022Z,10.88
2022-09-14T21:41:29.428Z,11.10
2022-09-14T21:43:56.922Z,9.73
2022-09-14T21:46:24.871Z,10.63
2022-09-14T21:48:52.370Z,10.73
2022-09-14T21:51:21.956Z,10.63
2022-09-14T21:53:52.607Z,10.65
2022-09-14T21:56:21.152Z,10.50
2022-09-14T21:59:14.129Z,10.43
2022-09-14T22:01:41.884Z,10.32
2022-09-14T22:04:13.870Z,10.43
2022-09-14T22:06:40.587Z,9.70
2022-09-14T22:09:07.213Z,9.45
2022-09-14T22:11:36.280Z,9.63
2022-09-14T22:14:06.214Z,9.05
2022-09-14T22:16:35.663Z,8.55
2022-09-14T22:19:05.518Z,8.85
2022-09-14T22:21:34.361Z,8.82
2022-09-14T22:24:04.358Z,8.98
2022-09-14T22:26:32.069Z,9.43
2022-09-14T22:28:59.292Z,8.57
2022-09-14T22:31:27.336Z,8.48
2022-09-14T22:33:56.018Z,8.52
2022-09-14T22:36:23.329Z,8.40
2022-09-14T22:38:51.360Z,9.13
2022-09-14T22:41:22.171Z,9.18
2022-09-14T22:43:49.531Z,8.80
2022-09-14T22:46:17.040Z,8.57
2022-09-14T22:48:44.852Z,9.23
2022-09-14T22:51:15.073Z,10.07
2022-09-14T22:53:42.071Z,9.05
2022-09-14T22:56:11.148Z,9.88
2022-09-14T22:58:39.267Z,9.90
2022-09-14T23:01:08.448Z,9.18
2022-09-14T23:03:35.329Z,10.23
2022-09-14T23:06:02.689Z,10.20
2022-09-14T23:08:30.670Z,10.05
2022-09-14T23:10:57.474Z,10.63
2022-09-14T23:13:24.077Z,11.13
2022-09-14T23:15:50.882Z,10.30
2022-09-14T23:18:17.491Z,11.05
2022-09-14T23:20:45.109Z,10.77
2022-09-14T23:23:12.231Z,12.02
2022-09-14T23:25:41.026Z,10.90
2022-09-14T23:28:11.751Z,11.18
2022-09-14T23:30:38.613Z,10.70
2022-09-14T23:33:06.025Z,10.30
2022-09-14T23:35:37.560Z,10.57
2022-09-14T23:38:04.680Z,10.43
2022-09-14T23:40:31.598Z,10.88
2022-09-14T23:42:58.674Z,10.30
2022-09-14T23:45:25.383Z,11.35
2022-09-14T23:47:52.011Z,11.85
2022-09-14T23:50:18.973Z,10.27
2022-09-14T23:52:47.224Z,10.70
2022-09-14T23:55:13.987Z,11.38
2022-09-14T23:57:40.948Z,12.38
